createdAt,value
2018-08-19T00:00:00.725Z,56.87
2018-08-19T00:02:34.164Z,57.75
2018-08-19T00:05:15.780Z,57.63
2018-08-19T00:07:49.479Z,57.40
2018-08-19T00:10:38.608Z,56.82
2018-08-19T00:13:12.986Z,56.98
2018-08-19T00:15:46.371Z,56.74
2018-08-19T00:18:19.826Z,56.89
2018-08-19T00:20:53.256Z,56.50
2018-08-19T00:23:29.763Z,56.81
2018-08-19T00:26:03.702Z,57.08
2018-08-19T00:28:37.120Z,56.95
2018-08-19T00:31:10.496Z,57.01
2018-08-19T00:33:43.872Z,57.49
2018-08-19T00:36:34.445Z,57.48
2018-08-19T00:39:08.669Z,57.27
2018-08-19T00:41:42.044Z,57.92
2018-08-19T00:44:15.476Z,57.78
2018-08-19T00:46:48.955Z,57.58
2018-08-19T00:49:22.351Z,57.39
2018-08-19T00:51:57.643Z,57.01
2018-08-19T00:54:31.956Z,57.78
2018-08-19T00:57:07.960Z,57.37
2018-08-19T00:59:41.422Z,57.23
2018-08-19T01:02:14.801Z,57.33
2018-08-19T01:04:48.966Z,57.81
2018-08-19T01:07:22.379Z,58.03
2018-08-19T01:09:55.877Z,58.09
2018-08-19T01:12:29.239Z,57.18
2018-08-19T01:15:02.894Z,57.24
2018-08-19T01:17:41.703Z,57.14
2018-08-19T01:20:19.872Z,57.99
2018-08-19T01:22:53.236Z,57.61
2018-08-19T01:25:26.789Z,57.40
2018-08-19T01:28:00.215Z,58.16
2018-08-19T01:30:33.622Z,58.27
2018-08-19T01:33:07.051Z,58.20
2018-08-19T01:35:40.432Z,57.79
2018-08-19T01:38:13.797Z,57.52
2018-08-19T01:40:47.213Z,58.58
2018-08-19T01:43:20.605Z,57.84
2018-08-19T01:45:53.993Z,58.13
2018-08-19T01:48:27.987Z,58.12
2018-08-19T01:51:01.364Z,58.26
2018-08-19T01:53:34.843Z,58.31
2018-08-19T01:56:08.336Z,58.36
2018-08-19T01:58:46.371Z,58.79
2018-08-19T02:01:19.845Z,58.68
2018-08-19T02:03:53.214Z,58.71
2018-08-19T02:06:26.592Z,58.51
2018-08-19T02:09:00.031Z,58.52
2018-08-19T02:11:33.465Z,58.66
2018-08-19T02:14:06.863Z,58.65
2018-08-19T02:16:40.848Z,58.74
2018-08-19T02:19:14.281Z,59.10
2018-08-19T02:21:48.428Z,59.24
2018-08-19T02:24:21.819Z,58.97
2018-08-19T02:26:55.181Z,59.28
2018-08-19T02:29:35.691Z,59.30
2018-08-19T02:32:10.130Z,59.25
2018-08-19T02:34:45.249Z,59.71
2018-08-19T02:37:18.642Z,59.59
2018-08-19T02:39:52.025Z,59.42
2018-08-19T02:42:30.663Z,59.59
2018-08-19T02:45:06.792Z,59.31
2018-08-19T02:47:40.357Z,59.81
2018-08-19T02:50:13.708Z,60.18
2018-08-19T02:52:47.094Z,60.12
2018-08-19T02:55:20.558Z,60.13
2018-08-19T02:57:58.073Z,60.42
2018-08-19T03:00:31.784Z,60.86
2018-08-19T03:03:05.219Z,60.30
2018-08-19T03:05:38.595Z,59.87
2018-08-19T03:08:11.966Z,59.61
2018-08-19T03:10:45.413Z,59.65
2018-08-19T03:13:18.775Z,59.33
2018-08-19T03:15:55.752Z,59.71
2018-08-19T03:18:29.198Z,59.55
2018-08-19T03:21:02.604Z,59.61
2018-08-19T03:23:35.969Z,59.79
2018-08-19T03:26:09.327Z,59.97
2018-08-19T03:28:42.677Z,60.23
2018-08-19T03:31:16.057Z,60.58
2018-08-19T03:33:49.521Z,60.33
2018-08-19T03:36:22.934Z,60.63
2018-08-19T03:39:03.440Z,60.65
2018-08-19T03:41:36.877Z,60.27
2018-08-19T03:44:10.231Z,59.83
2018-08-19T03:46:43.623Z,59.92
2018-08-19T03:49:17.445Z,60.16
2018-08-19T03:51:50.815Z,60.26
2018-08-19T03:54:24.254Z,59.86
2018-08-19T03:56:57.638Z,59.65
2018-08-19T03:59:31.043Z,60.19
2018-08-19T04:02:04.447Z,60.05
2018-08-19T04:04:37.840Z,60.16
2018-08-19T04:07:11.233Z,60.42
2018-08-19T04:09:44.669Z,60.39
2018-08-19T04:12:24.631Z,60.40
2018-08-19T04:14:58.012Z,60.54
2018-08-19T04:17:31.410Z,60.81
2018-08-19T04:20:05.749Z,61.07
2018-08-19T04:22:39.189Z,60.53
2018-08-19T04:25:12.606Z,60.83
2018-08-19T04:27:45.953Z,60.52
2018-08-19T04:30:19.293Z,60.58
2018-08-19T04:32:52.832Z,60.92
2018-08-19T04:35:26.199Z,60.65
2018-08-19T04:37:59.568Z,60.98
2018-08-19T04:40:33.007Z,60.56
2018-08-19T04:43:06.360Z,60.52
2018-08-19T04:45:39.707Z,60.53
2018-08-19T04:48:13.093Z,60.49
2018-08-19T04:50:46.468Z,60.94
2018-08-19T04:53:20.166Z,61.34
2018-08-19T04:55:54.288Z,61.36
2018-08-19T04:58:27.763Z,61.57
2018-08-19T05:01:01.204Z,61.29
2018-08-19T05:03:34.653Z,60.68
2018-08-19T05:06:08.121Z,60.81
2018-08-19T05:08:41.516Z,60.47
2018-08-19T05:11:14.866Z,60.24
2018-08-19T05:13:48.327Z,60.46
2018-08-19T05:16:21.716Z,60.06
2018-08-19T05:19:00.470Z,60.12
2018-08-19T05:21:33.939Z,60.61
2018-08-19T05:24:07.327Z,60.41
2018-08-19T05:26:40.705Z,60.09
2018-08-19T05:29:14.159Z,59.99
2018-08-19T05:31:54.737Z,59.75
2018-08-19T05:34:31.800Z,59.68
2018-08-19T05:37:05.243Z,59.45
2018-08-19T05:39:40.174Z,59.75
2018-08-19T05:42:14.152Z,59.53
2018-08-19T05:44:47.598Z,60.10
2018-08-19T05:47:21.036Z,59.76
2018-08-19T05:49:54.411Z,59.84
2018-08-19T05:52:27.842Z,59.86
2018-08-19T05:55:01.683Z,59.71
2018-08-19T05:57:35.348Z,59.61
2018-08-19T06:00:14.029Z,60.10
2018-08-19T06:02:47.449Z,60.26
2018-08-19T06:05:20.861Z,59.21
2018-08-19T06:07:59.737Z,60.14
2018-08-19T06:10:33.151Z,59.76
2018-08-19T06:13:07.663Z,59.71
2018-08-19T06:15:41.179Z,59.79
2018-08-19T06:18:14.536Z,59.53
2018-08-19T06:20:47.966Z,59.10
2018-08-19T06:23:22.104Z,58.82
2018-08-19T06:25:55.515Z,58.69
2018-08-19T06:28:28.899Z,58.47
2018-08-19T06:31:02.350Z,58.78
2018-08-19T06:33:35.760Z,58.59
2018-08-19T06:36:09.366Z,57.98
2018-08-19T06:38:42.796Z,57.90
2018-08-19T06:41:16.218Z,58.04
2018-08-19T06:43:49.580Z,57.00
2018-08-19T06:46:23.090Z,55.92
2018-08-19T06:48:56.479Z,56.28
2018-08-19T06:51:29.977Z,55.98
2018-08-19T06:54:03.339Z,55.61
2018-08-19T06:56:37.112Z,55.00
2018-08-19T06:59:10.542Z,55.10
2018-08-19T07:01:43.968Z,55.33
2018-08-19T07:04:17.371Z,55.80
2018-08-19T07:06:50.755Z,55.37
2018-08-19T07:09:24.124Z,55.58
2018-08-19T07:12:04.597Z,54.60
2018-08-19T07:14:38.192Z,54.92
2018-08-19T07:17:11.597Z,54.41
2018-08-19T07:22:17.258Z,53.91
2018-08-19T07:24:50.637Z,54.21
2018-08-19T07:27:24.169Z,55.84
2018-08-19T07:29:57.543Z,54.56
2018-08-19T07:32:30.943Z,55.12
2018-08-19T07:35:04.386Z,55.14
2018-08-19T07:37:37.796Z,54.79
2018-08-19T07:40:11.184Z,54.31
2018-08-19T07:42:44.544Z,54.06
2018-08-19T07:45:17.986Z,54.59
2018-08-19T07:47:51.383Z,53.59
2018-08-19T07:50:25.175Z,54.26
2018-08-19T07:52:58.599Z,54.33
2018-08-19T07:55:32.023Z,54.04
2018-08-19T07:58:05.715Z,52.18
2018-08-19T08:00:39.127Z,51.35
2018-08-19T08:03:12.508Z,49.91
2018-08-19T08:05:47.966Z,50.07
2018-08-19T08:08:21.401Z,49.86
2018-08-19T08:10:54.788Z,49.03
2018-08-19T08:13:28.159Z,48.65
2018-08-19T08:16:01.705Z,47.79
2018-08-19T08:18:35.124Z,47.63
2018-08-19T08:21:14.163Z,48.77
2018-08-19T08:23:47.535Z,47.42
2018-08-19T08:26:21.032Z,46.77
2018-08-19T08:28:59.698Z,45.54
2018-08-19T08:31:39.168Z,46.65
2018-08-19T08:34:12.574Z,47.53
2018-08-19T08:36:45.952Z,47.29
2018-08-19T08:39:19.365Z,45.80
2018-08-19T08:41:52.767Z,46.75
2018-08-19T08:44:26.340Z,44.64
2018-08-19T08:47:05.395Z,44.36
2018-08-19T08:49:44.257Z,45.07
2018-08-19T08:52:25.774Z,45.12
2018-08-19T08:55:01.675Z,44.57
2018-08-19T08:57:35.241Z,43.90
2018-08-19T09:00:09.920Z,44.51
2018-08-19T09:02:43.400Z,43.24
2018-08-19T09:05:16.796Z,43.30
2018-08-19T09:07:50.275Z,45.14
2018-08-19T09:10:23.696Z,44.28
2018-08-19T09:12:57.463Z,43.84
2018-08-19T09:15:30.936Z,43.58
2018-08-19T09:18:04.381Z,43.96
2018-08-19T09:20:37.764Z,41.86
2018-08-19T09:23:11.397Z,40.46
2018-08-19T09:25:45.857Z,41.47
2018-08-19T09:28:20.477Z,42.99
2018-08-19T09:30:54.353Z,41.45
2018-08-19T09:33:28.760Z,41.06
2018-08-19T09:36:02.954Z,40.42
2018-08-19T09:38:36.652Z,40.83
2018-08-19T09:41:10.187Z,41.40
2018-08-19T09:43:43.565Z,40.39
2018-08-19T09:46:17.037Z,40.45
2018-08-19T09:48:50.458Z,39.61
2018-08-19T09:51:23.856Z,40.35
2018-08-19T09:53:57.245Z,41.23
2018-08-19T09:56:35.977Z,42.45
2018-08-19T09:59:09.548Z,41.69
2018-08-19T10:01:47.717Z,41.14
2018-08-19T10:04:25.656Z,41.53
2018-08-19T10:07:04.320Z,40.51
2018-08-19T10:09:37.691Z,41.52
2018-08-19T10:12:12.835Z,40.78
2018-08-19T10:14:46.191Z,40.50
2018-08-19T10:17:19.607Z,40.42
2018-08-19T10:19:52.980Z,39.82
2018-08-19T10:22:30.561Z,39.83
2018-08-19T10:25:08.338Z,39.98
2018-08-19T10:27:41.732Z,39.49
2018-08-19T10:30:15.852Z,38.82
2018-08-19T10:32:56.677Z,40.06
2018-08-19T10:35:30.741Z,39.06
2018-08-19T10:38:04.680Z,39.42
2018-08-19T10:40:38.042Z,41.50
2018-08-19T10:43:11.459Z,39.36
2018-08-19T10:45:44.894Z,38.20
2018-08-19T10:48:18.295Z,38.92
2018-08-19T10:50:51.659Z,39.02
2018-08-19T10:53:27.623Z,39.00
2018-08-19T10:56:02.127Z,38.73
2018-08-19T10:58:35.563Z,39.97
2018-08-19T11:01:08.936Z,39.30
2018-08-19T11:03:42.335Z,39.26
2018-08-19T11:06:15.828Z,38.29
2018-08-19T11:08:54.559Z,37.82
2018-08-19T11:11:34.749Z,36.32
2018-08-19T11:14:12.421Z,36.97
2018-08-19T11:16:45.912Z,36.42
2018-08-19T11:19:19.897Z,36.09
2018-08-19T11:21:53.324Z,36.51
2018-08-19T11:24:28.484Z,36.52
2018-08-19T11:27:05.147Z,35.74
2018-08-19T11:29:40.355Z,35.81
2018-08-19T11:32:22.914Z,35.42
2018-08-19T11:34:56.321Z,35.78
2018-08-19T11:37:29.763Z,37.54
2018-08-19T11:40:03.310Z,34.56
2018-08-19T11:42:36.659Z,33.17
2018-08-19T11:45:10.113Z,32.62
2018-08-19T11:47:47.232Z,32.96
2018-08-19T11:50:20.656Z,34.32
2018-08-19T11:52:57.191Z,35.05
2018-08-19T11:55:30.928Z,36.05
2018-08-19T11:58:04.460Z,36.44
2018-08-19T12:00:45.463Z,35.67
2018-08-19T12:03:19.002Z,35.75
2018-08-19T12:05:54.503Z,33.54
2018-08-19T12:08:28.168Z,33.89
2018-08-19T12:11:15.592Z,33.05
2018-08-19T12:13:53.308Z,32.89
2018-08-19T12:16:27.823Z,32.63
2018-08-19T12:19:05.449Z,33.16
2018-08-19T12:21:43.560Z,34.09
2018-08-19T12:24:28.873Z,34.89
2018-08-19T12:27:04.613Z,34.29
2018-08-19T12:29:39.272Z,34.57
2018-08-19T12:32:16.455Z,35.12
2018-08-19T12:34:50.983Z,35.80
2018-08-19T12:37:25.493Z,35.37
2018-08-19T12:39:59.530Z,34.71
2018-08-19T12:42:38.477Z,34.78
2018-08-19T12:45:12.004Z,35.68
2018-08-19T12:47:45.356Z,34.21
2018-08-19T12:50:18.842Z,35.79
2018-08-19T12:52:52.230Z,36.64
2018-08-19T12:55:25.619Z,36.84
2018-08-19T12:58:03.213Z,36.16
2018-08-19T13:00:36.659Z,36.40
2018-08-19T13:03:10.123Z,35.30
2018-08-19T13:05:58.360Z,35.42
2018-08-19T13:08:31.903Z,34.62
2018-08-19T13:11:06.826Z,36.29
2018-08-19T13:13:40.209Z,36.43
2018-08-19T13:16:13.778Z,35.87
2018-08-19T13:18:47.133Z,35.32
2018-08-19T13:21:20.645Z,35.49
2018-08-19T13:23:54.020Z,36.92
2018-08-19T13:26:27.397Z,35.96
2018-08-19T13:29:00.808Z,35.66
2018-08-19T13:31:35.298Z,35.49
2018-08-19T13:34:08.637Z,35.87
2018-08-19T13:36:42.087Z,35.71
2018-08-19T13:39:15.455Z,35.09
2018-08-19T13:41:48.840Z,34.12
2018-08-19T13:44:22.266Z,34.58
2018-08-19T13:46:55.669Z,34.45
2018-08-19T13:49:29.784Z,35.86
2018-08-19T13:52:03.332Z,34.79
2018-08-19T13:54:48.648Z,35.53
2018-08-19T13:57:22.109Z,34.61
2018-08-19T13:59:55.514Z,35.93
2018-08-19T14:02:28.904Z,34.33
2018-08-19T14:05:02.494Z,35.66
2018-08-19T14:07:35.902Z,35.54
2018-08-19T14:10:10.727Z,34.01
2018-08-19T14:12:44.135Z,35.34
2018-08-19T14:15:17.559Z,35.85
2018-08-19T14:17:50.936Z,36.13
2018-08-19T14:20:24.607Z,35.43
2018-08-19T14:22:58.119Z,35.25
2018-08-19T14:25:31.557Z,35.28
2018-08-19T14:28:05.065Z,35.77
2018-08-19T14:30:38.530Z,35.45
2018-08-19T14:33:11.888Z,35.78
2018-08-19T14:35:45.301Z,35.77
2018-08-19T14:38:18.825Z,34.53
2018-08-19T14:40:52.222Z,36.03
2018-08-19T14:43:25.661Z,36.07
2018-08-19T14:45:59.129Z,35.13
2018-08-19T14:48:32.678Z,35.29
2018-08-19T14:51:06.064Z,35.54
2018-08-19T14:53:39.469Z,35.39
2018-08-19T14:56:15.820Z,36.15
2018-08-19T14:58:49.695Z,35.31
2018-08-19T15:01:23.075Z,36.14
2018-08-19T15:03:58.344Z,36.03
2018-08-19T15:06:31.728Z,35.34
2018-08-19T15:09:05.556Z,35.41
2018-08-19T15:11:38.915Z,35.04
2018-08-19T15:14:18.387Z,36.18
2018-08-19T15:16:52.832Z,35.88
2018-08-19T15:19:26.256Z,36.65
2018-08-19T15:21:59.669Z,34.95
2018-08-19T15:24:33.020Z,35.42
2018-08-19T15:27:06.440Z,35.93
2018-08-19T15:29:42.807Z,35.27
2018-08-19T15:32:16.643Z,35.40
2018-08-19T15:34:49.946Z,36.41
2018-08-19T15:37:23.313Z,36.00
2018-08-19T15:39:56.674Z,35.82
2018-08-19T15:42:30.049Z,36.57
2018-08-19T15:45:03.449Z,37.02
2018-08-19T15:47:36.812Z,36.32
2018-08-19T15:50:18.563Z,36.46
2018-08-19T15:52:52.029Z,36.56
2018-08-19T15:55:25.334Z,36.77
2018-08-19T15:58:01.852Z,36.24
2018-08-19T16:00:38.737Z,35.98
2018-08-19T16:03:13.251Z,36.46
2018-08-19T16:05:46.880Z,35.84
2018-08-19T16:08:20.551Z,35.94
2018-08-19T16:10:53.955Z,35.54
2018-08-19T16:13:27.341Z,36.32
2018-08-19T16:16:00.744Z,36.40
2018-08-19T16:18:34.132Z,36.14
2018-08-19T16:21:07.572Z,36.33
2018-08-19T16:23:41.061Z,35.58
2018-08-19T16:26:14.472Z,36.22
2018-08-19T16:28:48.072Z,35.48
2018-08-19T16:31:21.675Z,34.30
2018-08-19T16:33:55.127Z,35.04
2018-08-19T16:36:28.513Z,35.40
2018-08-19T16:39:01.907Z,35.16
2018-08-19T16:41:35.608Z,35.50
2018-08-19T16:44:09.633Z,35.69
2018-08-19T16:46:43.365Z,34.57
2018-08-19T16:49:17.073Z,34.70
2018-08-19T16:51:50.446Z,35.72
2018-08-19T16:54:23.842Z,35.04
2018-08-19T16:56:57.258Z,35.61
2018-08-19T16:59:30.642Z,35.57
2018-08-19T17:02:04.099Z,36.45
2018-08-19T17:04:38.571Z,36.63
2018-08-19T17:07:12.364Z,36.62
2018-08-19T17:09:45.770Z,36.62
2018-08-19T17:12:19.160Z,36.37
2018-08-19T17:14:52.593Z,36.17
2018-08-19T17:17:26.044Z,36.89
2018-08-19T17:19:59.466Z,37.03
2018-08-19T17:22:32.822Z,36.95
2018-08-19T17:25:06.535Z,37.98
2018-08-19T17:27:39.889Z,37.16
2018-08-19T17:30:17.437Z,37.93
2018-08-19T17:32:52.692Z,37.51
2018-08-19T17:35:26.408Z,37.01
2018-08-19T17:37:59.848Z,37.72
2018-08-19T17:40:33.283Z,37.61
2018-08-19T17:43:07.043Z,37.30
2018-08-19T17:45:40.577Z,37.57
2018-08-19T17:48:14.027Z,37.84
2018-08-19T17:50:47.492Z,38.35
2018-08-19T17:53:20.932Z,37.97
2018-08-19T17:55:54.296Z,38.14
2018-08-19T17:58:27.676Z,37.83
2018-08-19T18:01:01.083Z,36.94
2018-08-19T18:03:34.501Z,37.83
2018-08-19T18:06:07.965Z,38.19
2018-08-19T18:08:48.037Z,37.62
2018-08-19T18:11:21.800Z,37.89
2018-08-19T18:13:55.207Z,38.25
2018-08-19T18:16:28.647Z,38.58
2018-08-19T18:19:03.065Z,37.22
2018-08-19T18:21:36.759Z,37.13
2018-08-19T18:24:10.176Z,38.19
2018-08-19T18:26:43.573Z,38.22
2018-08-19T18:29:18.286Z,39.59
2018-08-19T18:31:51.667Z,39.00
2018-08-19T18:34:25.043Z,39.25
2018-08-19T18:36:58.401Z,39.19
2018-08-19T18:39:31.815Z,39.96
2018-08-19T18:42:05.217Z,39.81
2018-08-19T18:44:38.591Z,39.91
2018-08-19T18:47:11.995Z,40.12
2018-08-19T18:49:45.449Z,40.51
2018-08-19T18:52:18.832Z,41.32
2018-08-19T18:54:52.199Z,41.60
2018-08-19T18:57:25.641Z,41.44
2018-08-19T18:59:59.011Z,42.62
2018-08-19T19:02:32.424Z,41.88
2018-08-19T19:05:06.844Z,42.41
2018-08-19T19:07:40.250Z,41.86
2018-08-19T19:10:13.847Z,41.80
2018-08-19T19:12:47.363Z,42.35
2018-08-19T19:15:20.988Z,43.02
2018-08-19T19:17:54.461Z,42.15
2018-08-19T19:20:27.852Z,43.22
2018-08-19T19:23:03.135Z,42.42
2018-08-19T19:25:40.633Z,42.52
2018-08-19T19:28:14.015Z,42.33
2018-08-19T19:30:47.414Z,41.86
2018-08-19T19:33:21.211Z,43.03
2018-08-19T19:35:54.590Z,43.15
2018-08-19T19:38:27.993Z,43.54
2018-08-19T19:41:09.786Z,44.87
2018-08-19T19:43:43.163Z,45.43
2018-08-19T19:46:16.578Z,44.36
2018-08-19T19:48:50.127Z,43.68
2018-08-19T19:51:23.583Z,43.94
2018-08-19T19:53:56.939Z,44.10
2018-08-19T19:56:30.353Z,45.34
2018-08-19T19:59:03.708Z,44.64
2018-08-19T20:01:37.252Z,45.60
2018-08-19T20:04:10.619Z,46.34
2018-08-19T20:06:43.988Z,46.25
2018-08-19T20:09:17.393Z,46.63
2018-08-19T20:11:50.840Z,48.48
2018-08-19T20:14:24.308Z,47.42
2018-08-19T20:16:57.682Z,48.34
2018-08-19T20:19:31.922Z,49.28
2018-08-19T20:22:05.365Z,49.53
2018-08-19T20:24:38.756Z,49.67
2018-08-19T20:27:12.182Z,48.71
2018-08-19T20:29:45.697Z,49.45
2018-08-19T20:32:19.134Z,50.19
2018-08-19T20:34:52.528Z,50.48
2018-08-19T20:37:27.903Z,49.64
2018-08-19T20:40:01.599Z,49.07
2018-08-19T20:42:34.973Z,49.59
2018-08-19T20:45:08.886Z,48.66
2018-08-19T20:47:42.275Z,48.40
2018-08-19T20:50:16.308Z,48.73
2018-08-19T20:52:49.722Z,49.62
2018-08-19T20:55:23.100Z,49.28
2018-08-19T20:57:56.525Z,49.57
2018-08-19T21:00:29.904Z,49.66
2018-08-19T21:03:03.469Z,50.31
2018-08-19T21:05:37.156Z,50.78
2018-08-19T21:08:12.222Z,50.73
2018-08-19T21:10:46.460Z,50.78
2018-08-19T21:13:20.694Z,51.48
2018-08-19T21:15:55.602Z,51.54
2018-08-19T21:18:29.715Z,52.76
2018-08-19T21:21:03.094Z,52.59
2018-08-19T21:23:36.496Z,53.19
2018-08-19T21:26:09.886Z,53.86
2018-08-19T21:28:48.615Z,52.88
2018-08-19T21:31:22.013Z,52.62
2018-08-19T21:33:55.411Z,53.48
2018-08-19T21:36:28.847Z,54.19
2018-08-19T21:39:02.260Z,53.51
2018-08-19T21:41:46.758Z,54.71
2018-08-19T21:44:20.644Z,53.83
2018-08-19T21:46:54.055Z,54.62
2018-08-19T21:49:27.438Z,55.43
2018-08-19T21:52:01.621Z,54.42
2018-08-19T21:54:35.040Z,54.50
2018-08-19T21:57:08.439Z,54.12
2018-08-19T21:59:41.828Z,53.91
2018-08-19T22:02:20.557Z,53.80
2018-08-19T22:04:54.108Z,54.30
2018-08-19T22:07:27.499Z,53.98
2018-08-19T22:10:00.992Z,54.97
2018-08-19T22:12:35.969Z,54.55
2018-08-19T22:15:09.353Z,54.15
2018-08-19T22:17:42.771Z,54.24
2018-08-19T22:20:16.224Z,54.39
2018-08-19T22:22:49.663Z,54.97
2018-08-19T22:25:23.547Z,54.56
2018-08-19T22:27:56.964Z,55.26
2018-08-19T22:30:31.484Z,54.68
2018-08-19T22:33:05.236Z,55.71
2018-08-19T22:35:38.722Z,55.66
2018-08-19T22:38:17.354Z,54.95
2018-08-19T22:40:50.811Z,55.00
2018-08-19T22:43:24.278Z,55.29
2018-08-19T22:45:57.713Z,55.14
2018-08-19T22:48:40.531Z,55.18
2018-08-19T22:51:14.933Z,55.05
2018-08-19T22:53:52.233Z,55.95
2018-08-19T22:56:25.654Z,55.58
2018-08-19T22:58:59.079Z,55.54
2018-08-19T23:01:38.343Z,55.01
2018-08-19T23:04:11.823Z,55.20
2018-08-19T23:06:45.223Z,56.15
2018-08-19T23:09:18.674Z,55.49
2018-08-19T23:11:52.059Z,55.60
2018-08-19T23:14:36.892Z,55.34
2018-08-19T23:17:10.320Z,55.49
2018-08-19T23:19:43.768Z,55.48
2018-08-19T23:22:17.184Z,55.47
2018-08-19T23:24:50.582Z,55.34
2018-08-19T23:27:23.970Z,55.99
2018-08-19T23:29:57.360Z,55.51
2018-08-19T23:32:30.756Z,55.40
2018-08-19T23:35:04.219Z,55.22
2018-08-19T23:37:37.723Z,55.21
2018-08-19T23:40:11.130Z,55.65
2018-08-19T23:42:44.524Z,55.60
2018-08-19T23:45:17.924Z,55.90
2018-08-19T23:47:51.319Z,55.54
2018-08-19T23:50:24.713Z,56.29
2018-08-19T23:52:58.138Z,56.63
2018-08-19T23:55:32.031Z,56.19
2018-08-19T23:58:05.742Z,56.44
